sensor_id;sensor_type;location;lat;lon;timestamp;P1;durP1;ratioP1;P2;durP2;ratioP2
50205;SDS011;36098;48.390;10.856;2022-08-01T00:00:21;1.85;;;1.60;;
50205;SDS011;36098;48.390;10.856;2022-08-01T00:02:46;1.77;;;1.45;;
50205;SDS011;36098;48.390;10.856;2022-08-01T00:05:12;1.63;;;1.42;;
50205;SDS011;36098;48.390;10.856;2022-08-01T00:07:38;1.65;;;1.50;;
50205;SDS011;36098;48.390;10.856;2022-08-01T00:10:04;1.30;;;1.15;;
50205;SDS011;36098;48.390;10.856;2022-08-01T00:12:30;1.60;;;1.38;;
50205;SDS011;36098;48.390;10.856;2022-08-01T00:14:55;1.60;;;1.40;;
50205;SDS011;36098;48.390;10.856;2022-08-01T00:17:20;1.80;;;1.40;;
50205;SDS011;36098;48.390;10.856;2022-08-01T00:19:46;1.85;;;1.55;;
50205;SDS011;36098;48.390;10.856;2022-08-01T00:22:11;2.17;;;1.52;;
50205;SDS011;36098;48.390;10.856;2022-08-01T00:24:36;2.05;;;1.40;;
50205;SDS011;36098;48.390;10.856;2022-08-01T00:27:02;1.52;;;1.38;;
50205;SDS011;36098;48.390;10.856;2022-08-01T00:29:27;1.55;;;1.45;;
50205;SDS011;36098;48.390;10.856;2022-08-01T00:31:52;1.65;;;1.45;;
50205;SDS011;36098;48.390;10.856;2022-08-01T00:34:17;1.40;;;1.30;;
50205;SDS011;36098;48.390;10.856;2022-08-01T00:36:43;2.33;;;1.65;;
50205;SDS011;36098;48.390;10.856;2022-08-01T00:39:08;1.90;;;1.40;;
50205;SDS011;36098;48.390;10.856;2022-08-01T00:41:33;1.55;;;1.45;;
50205;SDS011;36098;48.390;10.856;2022-08-01T00:44:01;1.25;;;1.15;;
50205;SDS011;36098;48.390;10.856;2022-08-01T00:46:28;1.48;;;1.38;;
50205;SDS011;36098;48.390;10.856;2022-08-01T00:48:53;1.40;;;1.30;;
50205;SDS011;36098;48.390;10.856;2022-08-01T00:51:19;1.77;;;1.40;;
50205;SDS011;36098;48.390;10.856;2022-08-01T00:53:45;1.90;;;1.15;;
50205;SDS011;36098;48.390;10.856;2022-08-01T00:56:10;1.90;;;1.50;;
50205;SDS011;36098;48.390;10.856;2022-08-01T00:58:36;1.58;;;1.30;;
50205;SDS011;36098;48.390;10.856;2022-08-01T01:01:01;1.60;;;1.50;;
50205;SDS011;36098;48.390;10.856;2022-08-01T01:03:27;1.65;;;1.40;;
50205;SDS011;36098;48.390;10.856;2022-08-01T01:06:11;1.70;;;1.38;;
50205;SDS011;36098;48.390;10.856;2022-08-01T01:14:20;2.03;;;1.38;;
50205;SDS011;36098;48.390;10.856;2022-08-01T01:16:52;1.55;;;1.35;;
50205;SDS011;36098;48.390;10.856;2022-08-01T01:19:21;1.92;;;1.52;;
50205;SDS011;36098;48.390;10.856;2022-08-01T01:24:43;1.58;;;1.48;;
50205;SDS011;36098;48.390;10.856;2022-08-01T01:27:18;1.40;;;1.30;;
50205;SDS011;36098;48.390;10.856;2022-08-01T01:29:52;1.52;;;1.27;;
50205;SDS011;36098;48.390;10.856;2022-08-01T01:32:31;1.67;;;1.45;;
50205;SDS011;36098;48.390;10.856;2022-08-01T01:35:02;1.63;;;1.20;;
50205;SDS011;36098;48.390;10.856;2022-08-01T01:37:31;1.75;;;1.40;;
50205;SDS011;36098;48.390;10.856;2022-08-01T01:39:59;1.55;;;1.45;;
50205;SDS011;36098;48.390;10.856;2022-08-01T01:42:25;1.95;;;1.60;;
50205;SDS011;36098;48.390;10.856;2022-08-01T01:44:51;1.30;;;1.17;;
50205;SDS011;36098;48.390;10.856;2022-08-01T01:47:19;1.48;;;1.38;;
50205;SDS011;36098;48.390;10.856;2022-08-01T01:49:46;1.77;;;1.40;;
50205;SDS011;36098;48.390;10.856;2022-08-01T01:52:13;1.42;;;1.30;;
50205;SDS011;36098;48.390;10.856;2022-08-01T01:54:42;1.40;;;1.30;;
50205;SDS011;36098;48.390;10.856;2022-08-01T01:57:11;1.70;;;1.40;;
50205;SDS011;36098;48.390;10.856;2022-08-01T01:59:39;2.13;;;1.42;;
50205;SDS011;36098;48.390;10.856;2022-08-01T02:02:06;1.75;;;1.42;;
50205;SDS011;36098;48.390;10.856;2022-08-01T02:04:34;1.45;;;1.30;;
50205;SDS011;36098;48.390;10.856;2022-08-01T02:07:01;1.60;;;1.38;;
50205;SDS011;36098;48.390;10.856;2022-08-01T02:09:27;1.73;;;1.38;;
50205;SDS011;36098;48.390;10.856;2022-08-01T02:11:54;2.58;;;1.40;;
50205;SDS011;36098;48.390;10.856;2022-08-01T02:14:20;1.30;;;1.20;;
50205;SDS011;36098;48.390;10.856;2022-08-01T02:16:49;2.85;;;1.42;;
50205;SDS011;36098;48.390;10.856;2022-08-01T02:19:18;1.45;;;1.35;;
50205;SDS011;36098;48.390;10.856;2022-08-01T02:21:49;1.88;;;1.17;;
50205;SDS011;36098;48.390;10.856;2022-08-01T02:24:35;2.05;;;1.45;;
50205;SDS011;36098;48.390;10.856;2022-08-01T02:27:12;1.70;;;1.30;;
50205;SDS011;36098;48.390;10.856;2022-08-01T02:29:52;2.10;;;1.48;;
50205;SDS011;36098;48.390;10.856;2022-08-01T02:35:20;1.75;;;1.45;;
50205;SDS011;36098;48.390;10.856;2022-08-01T02:37:50;1.42;;;1.30;;
50205;SDS011;36098;48.390;10.856;2022-08-01T02:40:18;1.25;;;1.15;;
50205;SDS011;36098;48.390;10.856;2022-08-01T02:42:45;1.80;;;1.50;;
50205;SDS011;36098;48.390;10.856;2022-08-01T02:45:14;1.92;;;1.40;;
50205;SDS011;36098;48.390;10.856;2022-08-01T02:47:42;1.38;;;1.27;;
50205;SDS011;36098;48.390;10.856;2022-08-01T02:50:09;1.73;;;1.40;;
50205;SDS011;36098;48.390;10.856;2022-08-01T02:52:37;2.28;;;1.40;;
50205;SDS011;36098;48.390;10.856;2022-08-01T02:55:03;1.52;;;1.42;;
50205;SDS011;36098;48.390;10.856;2022-08-01T02:57:30;1.52;;;1.40;;
50205;SDS011;36098;48.390;10.856;2022-08-01T02:59:56;1.45;;;1.30;;
50205;SDS011;36098;48.390;10.856;2022-08-01T03:02:23;1.55;;;1.38;;
50205;SDS011;36098;48.390;10.856;2022-08-01T03:04:50;2.30;;;1.65;;
50205;SDS011;36098;48.390;10.856;2022-08-01T03:07:17;1.70;;;1.40;;
50205;SDS011;36098;48.390;10.856;2022-08-01T03:09:44;1.50;;;1.40;;
50205;SDS011;36098;48.390;10.856;2022-08-01T03:12:13;1.58;;;1.48;;
50205;SDS011;36098;48.390;10.856;2022-08-01T03:14:41;1.77;;;1.48;;
50205;SDS011;36098;48.390;10.856;2022-08-01T03:17:08;1.40;;;1.30;;
50205;SDS011;36098;48.390;10.856;2022-08-01T03:19:34;1.42;;;1.33;;
50205;SDS011;36098;48.390;10.856;2022-08-01T03:22:02;1.50;;;1.30;;
50205;SDS011;36098;48.390;10.856;2022-08-01T03:24:33;1.60;;;1.50;;
50205;SDS011;36098;48.390;10.856;2022-08-01T03:27:00;3.50;;;1.50;;
50205;SDS011;36098;48.390;10.856;2022-08-01T03:29:27;2.00;;;1.70;;
50205;SDS011;36098;48.390;10.856;2022-08-01T03:31:54;2.05;;;1.58;;
50205;SDS011;36098;48.390;10.856;2022-08-01T03:34:21;1.95;;;1.40;;
50205;SDS011;36098;48.390;10.856;2022-08-01T03:36:53;1.48;;;1.38;;
50205;SDS011;36098;48.390;10.856;2022-08-01T03:39:22;1.70;;;1.30;;
50205;SDS011;36098;48.390;10.856;2022-08-01T03:41:54;1.85;;;1.40;;
50205;SDS011;36098;48.390;10.856;2022-08-01T03:44:24;1.40;;;1.30;;
50205;SDS011;36098;48.390;10.856;2022-08-01T03:46:54;1.40;;;1.30;;
50205;SDS011;36098;48.390;10.856;2022-08-01T03:49:24;1.70;;;1.30;;
50205;SDS011;36098;48.390;10.856;2022-08-01T03:51:53;1.95;;;1.40;;
50205;SDS011;36098;48.390;10.856;2022-08-01T03:54:30;1.90;;;1.40;;
50205;SDS011;36098;48.390;10.856;2022-08-01T03:56:58;1.67;;;1.40;;
50205;SDS011;36098;48.390;10.856;2022-08-01T03:59:24;1.40;;;1.30;;
50205;SDS011;36098;48.390;10.856;2022-08-01T04:01:51;1.42;;;1.10;;
50205;SDS011;36098;48.390;10.856;2022-08-01T04:04:16;1.38;;;1.27;;
50205;SDS011;36098;48.390;10.856;2022-08-01T04:06:42;1.30;;;1.20;;
50205;SDS011;36098;48.390;10.856;2022-08-01T04:09:09;1.90;;;1.27;;
50205;SDS011;36098;48.390;10.856;2022-08-01T04:11:36;2.15;;;1.23;;
50205;SDS011;36098;48.390;10.856;2022-08-01T04:14:02;1.90;;;1.40;;
50205;SDS011;36098;48.390;10.856;2022-08-01T04:16:28;2.53;;;1.30;;
50205;SDS011;36098;48.390;10.856;2022-08-01T04:18:53;1.55;;;1.30;;
50205;SDS011;36098;48.390;10.856;2022-08-01T04:21:20;1.30;;;1.20;;
50205;SDS011;36098;48.390;10.856;2022-08-01T04:23:48;1.45;;;1.25;;
50205;SDS011;36098;48.390;10.856;2022-08-01T04:26:16;1.40;;;1.20;;
50205;SDS011;36098;48.390;10.856;2022-08-01T04:28:43;1.60;;;1.40;;
50205;SDS011;36098;48.390;10.856;2022-08-01T04:31:10;1.42;;;1.25;;
50205;SDS011;36098;48.390;10.856;2022-08-01T04:33:42;1.40;;;1.30;;
50205;SDS011;36098;48.390;10.856;2022-08-01T04:36:10;1.67;;;1.40;;
50205;SDS011;36098;48.390;10.856;2022-08-01T04:38:39;1.63;;;1.33;;
50205;SDS011;36098;48.390;10.856;2022-08-01T04:41:07;1.67;;;1.40;;
50205;SDS011;36098;48.390;10.856;2022-08-01T04:43:36;1.20;;;1.10;;
50205;SDS011;36098;48.390;10.856;2022-08-01T04:46:02;1.73;;;1.30;;
50205;SDS011;36098;48.390;10.856;2022-08-01T04:48:28;1.75;;;1.40;;
50205;SDS011;36098;48.390;10.856;2022-08-01T04:50:54;1.45;;;1.35;;
50205;SDS011;36098;48.390;10.856;2022-08-01T04:53:20;1.40;;;1.30;;
50205;SDS011;36098;48.390;10.856;2022-08-01T04:55:48;1.48;;;1.30;;
50205;SDS011;36098;48.390;10.856;2022-08-01T04:58:14;1.52;;;1.40;;
50205;SDS011;36098;48.390;10.856;2022-08-01T05:00:40;2.20;;;1.30;;
50205;SDS011;36098;48.390;10.856;2022-08-01T05:03:05;1.48;;;1.30;;
50205;SDS011;36098;48.390;10.856;2022-08-01T05:05:31;1.38;;;1.27;;
50205;SDS011;36098;48.390;10.856;2022-08-01T05:07:56;1.42;;;1.30;;
50205;SDS011;36098;48.390;10.856;2022-08-01T05:10:22;2.10;;;1.23;;
50205;SDS011;36098;48.390;10.856;2022-08-01T05:12:47;1.50;;;1.30;;
50205;SDS011;36098;48.390;10.856;2022-08-01T05:15:12;4.25;;;1.30;;
50205;SDS011;36098;48.390;10.856;2022-08-01T05:17:38;1.50;;;1.40;;
50205;SDS011;36098;48.390;10.856;2022-08-01T05:20:03;2.25;;;1.40;;
50205;SDS011;36098;48.390;10.856;2022-08-01T05:22:31;10.07;;;1.70;;
50205;SDS011;36098;48.390;10.856;2022-08-01T05:24:56;2.38;;;1.60;;
50205;SDS011;36098;48.390;10.856;2022-08-01T05:27:22;3.88;;;1.70;;
50205;SDS011;36098;48.390;10.856;2022-08-01T05:29:47;1.90;;;1.40;;
50205;SDS011;36098;48.390;10.856;2022-08-01T05:32:12;6.78;;;1.60;;
50205;SDS011;36098;48.390;10.856;2022-08-01T05:34:37;3.10;;;1.67;;
50205;SDS011;36098;48.390;10.856;2022-08-01T05:37:03;5.28;;;1.63;;
50205;SDS011;36098;48.390;10.856;2022-08-01T05:39:28;5.70;;;1.80;;
50205;SDS011;36098;48.390;10.856;2022-08-01T05:41:53;4.50;;;1.70;;
50205;SDS011;36098;48.390;10.856;2022-08-01T05:44:19;7.63;;;2.00;;
50205;SDS011;36098;48.390;10.856;2022-08-01T05:46:44;4.47;;;1.73;;
50205;SDS011;36098;48.390;10.856;2022-08-01T05:49:09;3.90;;;1.70;;
50205;SDS011;36098;48.390;10.856;2022-08-01T05:51:35;2.20;;;1.50;;
50205;SDS011;36098;48.390;10.856;2022-08-01T05:54:00;4.47;;;1.55;;
50205;SDS011;36098;48.390;10.856;2022-08-01T05:56:25;2.80;;;1.63;;
50205;SDS011;36098;48.390;10.856;2022-08-01T05:58:51;4.03;;;1.50;;
50205;SDS011;36098;48.390;10.856;2022-08-01T06:01:17;3.30;;;1.67;;
50205;SDS011;36098;48.390;10.856;2022-08-01T06:03:43;4.80;;;1.67;;
50205;SDS011;36098;48.390;10.856;2022-08-01T06:06:09;2.45;;;1.70;;
50205;SDS011;36098;48.390;10.856;2022-08-01T06:08:34;2.20;;;1.70;;
50205;SDS011;36098;48.390;10.856;2022-08-01T06:10:59;4.75;;;1.70;;
50205;SDS011;36098;48.390;10.856;2022-08-01T06:13:25;4.20;;;1.75;;
50205;SDS011;36098;48.390;10.856;2022-08-01T06:15:51;2.75;;;1.85;;
50205;SDS011;36098;48.390;10.856;2022-08-01T06:18:16;3.78;;;2.22;;
50205;SDS011;36098;48.390;10.856;2022-08-01T06:20:42;3.95;;;1.90;;
50205;SDS011;36098;48.390;10.856;2022-08-01T06:23:08;4.80;;;1.80;;
50205;SDS011;36098;48.390;10.856;2022-08-01T06:25:33;4.72;;;1.70;;
50205;SDS011;36098;48.390;10.856;2022-08-01T06:27:59;2.38;;;1.70;;
50205;SDS011;36098;48.390;10.856;2022-08-01T06:30:25;5.38;;;2.10;;
50205;SDS011;36098;48.390;10.856;2022-08-01T06:32:50;2.53;;;2.10;;
50205;SDS011;36098;48.390;10.856;2022-08-01T06:35:15;2.88;;;1.98;;
50205;SDS011;36098;48.390;10.856;2022-08-01T06:37:41;3.00;;;1.90;;
50205;SDS011;36098;48.390;10.856;2022-08-01T06:40:09;3.05;;;2.20;;
50205;SDS011;36098;48.390;10.856;2022-08-01T06:42:36;3.72;;;2.00;;
50205;SDS011;36098;48.390;10.856;2022-08-01T06:45:03;2.70;;;1.98;;
50205;SDS011;36098;48.390;10.856;2022-08-01T06:47:29;2.88;;;2.20;;
50205;SDS011;36098;48.390;10.856;2022-08-01T06:49:54;4.43;;;2.25;;
50205;SDS011;36098;48.390;10.856;2022-08-01T06:52:19;3.42;;;1.95;;
50205;SDS011;36098;48.390;10.856;2022-08-01T06:54:45;4.07;;;2.10;;
50205;SDS011;36098;48.390;10.856;2022-08-01T06:57:10;3.22;;;2.13;;
50205;SDS011;36098;48.390;10.856;2022-08-01T06:59:35;3.55;;;1.98;;
50205;SDS011;36098;48.390;10.856;2022-08-01T07:02:01;2.40;;;1.92;;
50205;SDS011;36098;48.390;10.856;2022-08-01T07:04:26;2.80;;;2.00;;
50205;SDS011;36098;48.390;10.856;2022-08-01T07:06:51;3.10;;;1.92;;
50205;SDS011;36098;48.390;10.856;2022-08-01T07:09:17;2.60;;;2.00;;
50205;SDS011;36098;48.390;10.856;2022-08-01T07:11:42;3.03;;;1.90;;
50205;SDS011;36098;48.390;10.856;2022-08-01T07:14:08;3.22;;;2.10;;
50205;SDS011;36098;48.390;10.856;2022-08-01T07:16:33;2.55;;;1.98;;
50205;SDS011;36098;48.390;10.856;2022-08-01T07:18:58;2.83;;;1.80;;
50205;SDS011;36098;48.390;10.856;2022-08-01T07:21:23;3.92;;;2.10;;
50205;SDS011;36098;48.390;10.856;2022-08-01T07:23:49;3.95;;;2.20;;
50205;SDS011;36098;48.390;10.856;2022-08-01T07:26:14;6.72;;;2.25;;
50205;SDS011;36098;48.390;10.856;2022-08-01T07:28:39;3.13;;;2.13;;
50205;SDS011;36098;48.390;10.856;2022-08-01T07:31:04;2.70;;;2.30;;
50205;SDS011;36098;48.390;10.856;2022-08-01T07:33:30;2.80;;;2.20;;
50205;SDS011;36098;48.390;10.856;2022-08-01T07:35:55;3.55;;;2.10;;
50205;SDS011;36098;48.390;10.856;2022-08-01T07:38:20;3.38;;;2.10;;
50205;SDS011;36098;48.390;10.856;2022-08-01T07:40:46;4.55;;;2.25;;
50205;SDS011;36098;48.390;10.856;2022-08-01T07:43:11;2.80;;;2.28;;
50205;SDS011;36098;48.390;10.856;2022-08-01T07:45:36;4.38;;;2.10;;
50205;SDS011;36098;48.390;10.856;2022-08-01T07:48:05;3.05;;;1.90;;
50205;SDS011;36098;48.390;10.856;2022-08-01T07:50:31;2.83;;;2.10;;
50205;SDS011;36098;48.390;10.856;2022-08-01T07:52:56;2.47;;;1.98;;
50205;SDS011;36098;48.390;10.856;2022-08-01T07:55:22;2.92;;;1.92;;
50205;SDS011;36098;48.390;10.856;2022-08-01T07:57:47;2.33;;;1.92;;
50205;SDS011;36098;48.390;10.856;2022-08-01T08:00:12;2.53;;;1.85;;
50205;SDS011;36098;48.390;10.856;2022-08-01T08:02:38;2.67;;;2.08;;
50205;SDS011;36098;48.390;10.856;2022-08-01T08:05:03;2.45;;;2.10;;
50205;SDS011;36098;48.390;10.856;2022-08-01T08:07:29;4.85;;;2.20;;
50205;SDS011;36098;48.390;10.856;2022-08-01T08:09:55;4.88;;;1.85;;
50205;SDS011;36098;48.390;10.856;2022-08-01T08:12:20;4.28;;;1.90;;
50205;SDS011;36098;48.390;10.856;2022-08-01T08:14:45;3.60;;;1.85;;
50205;SDS011;36098;48.390;10.856;2022-08-01T08:17:11;3.00;;;1.98;;
50205;SDS011;36098;48.390;10.856;2022-08-01T08:19:36;2.55;;;2.00;;
50205;SDS011;36098;48.390;10.856;2022-08-01T08:22:03;3.42;;;1.80;;
50205;SDS011;36098;48.390;10.856;2022-08-01T08:24:29;2.30;;;1.80;;
50205;SDS011;36098;48.390;10.856;2022-08-01T08:26:55;4.03;;;1.67;;
50205;SDS011;36098;48.390;10.856;2022-08-01T08:29:22;3.88;;;2.10;;
50205;SDS011;36098;48.390;10.856;2022-08-01T08:31:48;3.47;;;1.95;;
50205;SDS011;36098;48.390;10.856;2022-08-01T08:34:14;2.40;;;1.65;;
50205;SDS011;36098;48.390;10.856;2022-08-01T08:36:40;7.10;;;2.10;;
50205;SDS011;36098;48.390;10.856;2022-08-01T08:39:05;3.58;;;2.00;;
50205;SDS011;36098;48.390;10.856;2022-08-01T08:41:34;5.15;;;1.80;;
50205;SDS011;36098;48.390;10.856;2022-08-01T08:44:00;5.30;;;2.10;;
50205;SDS011;36098;48.390;10.856;2022-08-01T08:46:27;3.17;;;1.70;;
50205;SDS011;36098;48.390;10.856;2022-08-01T08:48:53;3.50;;;1.70;;
50205;SDS011;36098;48.390;10.856;2022-08-01T08:51:20;4.93;;;1.80;;
50205;SDS011;36098;48.390;10.856;2022-08-01T08:53:48;5.80;;;1.80;;
50205;SDS011;36098;48.390;10.856;2022-08-01T08:56:13;2.15;;;1.65;;
50205;SDS011;36098;48.390;10.856;2022-08-01T08:58:43;6.43;;;1.80;;
50205;SDS011;36098;48.390;10.856;2022-08-01T09:01:09;5.35;;;2.03;;
50205;SDS011;36098;48.390;10.856;2022-08-01T09:03:35;3.95;;;1.60;;
50205;SDS011;36098;48.390;10.856;2022-08-01T09:06:00;3.25;;;1.63;;
50205;SDS011;36098;48.390;10.856;2022-08-01T09:08:25;3.53;;;1.90;;
50205;SDS011;36098;48.390;10.856;2022-08-01T09:10:51;3.13;;;1.77;;
50205;SDS011;36098;48.390;10.856;2022-08-01T09:13:16;3.65;;;1.70;;
50205;SDS011;36098;48.390;10.856;2022-08-01T09:15:51;2.35;;;1.58;;
50205;SDS011;36098;48.390;10.856;2022-08-01T09:18:36;4.45;;;1.95;;
50205;SDS011;36098;48.390;10.856;2022-08-01T09:21:19;3.33;;;1.90;;
50205;SDS011;36098;48.390;10.856;2022-08-01T09:26:15;2.22;;;1.40;;
50205;SDS011;36098;48.390;10.856;2022-08-01T09:28:44;1.92;;;1.35;;
50205;SDS011;36098;48.390;10.856;2022-08-01T09:31:11;5.07;;;1.60;;
50205;SDS011;36098;48.390;10.856;2022-08-01T09:36:21;2.80;;;1.50;;
50205;SDS011;36098;48.390;10.856;2022-08-01T09:38:50;3.35;;;1.45;;
50205;SDS011;36098;48.390;10.856;2022-08-01T09:41:17;2.00;;;1.45;;
50205;SDS011;36098;48.390;10.856;2022-08-01T09:43:52;3.85;;;1.40;;
50205;SDS011;36098;48.390;10.856;2022-08-01T09:46:18;2.95;;;1.40;;
50205;SDS011;36098;48.390;10.856;2022-08-01T09:51:29;6.13;;;1.67;;
50205;SDS011;36098;48.390;10.856;2022-08-01T09:56:22;3.35;;;1.50;;
50205;SDS011;36098;48.390;10.856;2022-08-01T09:58:51;2.85;;;1.27;;
50205;SDS011;36098;48.390;10.856;2022-08-01T10:01:19;2.42;;;1.42;;
50205;SDS011;36098;48.390;10.856;2022-08-01T10:03:46;3.20;;;1.40;;
50205;SDS011;36098;48.390;10.856;2022-08-01T10:06:20;2.75;;;1.58;;
50205;SDS011;36098;48.390;10.856;2022-08-01T10:08:46;2.17;;;1.30;;
50205;SDS011;36098;48.390;10.856;2022-08-01T10:11:12;2.53;;;1.27;;
50205;SDS011;36098;48.390;10.856;2022-08-01T10:13:38;1.60;;;1.20;;
50205;SDS011;36098;48.390;10.856;2022-08-01T10:16:04;4.30;;;1.30;;
50205;SDS011;36098;48.390;10.856;2022-08-01T10:18:31;2.30;;;1.30;;
50205;SDS011;36098;48.390;10.856;2022-08-01T10:20:59;1.55;;;1.20;;
50205;SDS011;36098;48.390;10.856;2022-08-01T10:23:27;1.67;;;1.40;;
50205;SDS011;36098;48.390;10.856;2022-08-01T10:25:55;3.53;;;1.25;;
50205;SDS011;36098;48.390;10.856;2022-08-01T10:28:22;2.85;;;1.50;;
50205;SDS011;36098;48.390;10.856;2022-08-01T10:30:49;5.18;;;1.60;;
50205;SDS011;36098;48.390;10.856;2022-08-01T10:33:15;4.43;;;1.33;;
50205;SDS011;36098;48.390;10.856;2022-08-01T10:35:42;2.17;;;1.30;;
50205;SDS011;36098;48.390;10.856;2022-08-01T10:38:10;2.60;;;1.48;;
50205;SDS011;36098;48.390;10.856;2022-08-01T10:40:36;2.05;;;1.50;;
50205;SDS011;36098;48.390;10.856;2022-08-01T10:43:02;1.60;;;1.35;;
50205;SDS011;36098;48.390;10.856;2022-08-01T10:45:29;1.70;;;1.48;;
50205;SDS011;36098;48.390;10.856;2022-08-01T10:50:37;3.33;;;1.30;;
50205;SDS011;36098;48.390;10.856;2022-08-01T10:53:13;1.67;;;1.30;;
50205;SDS011;36098;48.390;10.856;2022-08-01T10:58:32;1.67;;;1.20;;
50205;SDS011;36098;48.390;10.856;2022-08-01T11:03:41;2.10;;;1.25;;
50205;SDS011;36098;48.390;10.856;2022-08-01T11:06:14;3.60;;;1.70;;
50205;SDS011;36098;48.390;10.856;2022-08-01T11:08:41;2.00;;;1.27;;
50205;SDS011;36098;48.390;10.856;2022-08-01T11:11:15;1.50;;;1.35;;
50205;SDS011;36098;48.390;10.856;2022-08-01T11:16:42;3.85;;;1.38;;
50205;SDS011;36098;48.390;10.856;2022-08-01T11:19:07;3.20;;;1.40;;
50205;SDS011;36098;48.390;10.856;2022-08-01T11:24:22;4.78;;;1.35;;
50205;SDS011;36098;48.390;10.856;2022-08-01T11:27:17;17.40;;;1.58;;
50205;SDS011;36098;48.390;10.856;2022-08-01T11:29:53;5.43;;;1.73;;
50205;SDS011;36098;48.390;10.856;2022-08-01T11:32:55;4.97;;;1.85;;
50205;SDS011;36098;48.390;10.856;2022-08-01T11:35:24;1.95;;;1.15;;
50205;SDS011;36098;48.390;10.856;2022-08-01T11:37:52;2.50;;;1.40;;
50205;SDS011;36098;48.390;10.856;2022-08-01T11:45:51;4.10;;;1.40;;
50205;SDS011;36098;48.390;10.856;2022-08-01T11:48:29;6.28;;;1.42;;
50205;SDS011;36098;48.390;10.856;2022-08-01T11:50:55;3.63;;;1.45;;
50205;SDS011;36098;48.390;10.856;2022-08-01T11:53:22;5.90;;;1.67;;
50205;SDS011;36098;48.390;10.856;2022-08-01T11:55:48;6.57;;;1.70;;
50205;SDS011;36098;48.390;10.856;2022-08-01T11:58:16;3.35;;;1.75;;
50205;SDS011;36098;48.390;10.856;2022-08-01T12:00:52;5.07;;;1.40;;
50205;SDS011;36098;48.390;10.856;2022-08-01T12:03:25;4.00;;;1.45;;
50205;SDS011;36098;48.390;10.856;2022-08-01T12:08:28;2.60;;;1.85;;
50205;SDS011;36098;48.390;10.856;2022-08-01T12:10:59;2.50;;;1.38;;
50205;SDS011;36098;48.390;10.856;2022-08-01T12:13:25;2.35;;;1.38;;
50205;SDS011;36098;48.390;10.856;2022-08-01T12:15:51;2.80;;;1.48;;
50205;SDS011;36098;48.390;10.856;2022-08-01T12:18:16;5.05;;;1.40;;
50205;SDS011;36098;48.390;10.856;2022-08-01T12:20:43;4.85;;;1.65;;
50205;SDS011;36098;48.390;10.856;2022-08-01T12:23:11;2.35;;;1.60;;
50205;SDS011;36098;48.390;10.856;2022-08-01T12:25:38;4.53;;;1.63;;
50205;SDS011;36098;48.390;10.856;2022-08-01T12:28:05;3.47;;;1.45;;
50205;SDS011;36098;48.390;10.856;2022-08-01T12:30:33;1.48;;;1.38;;
50205;SDS011;36098;48.390;10.856;2022-08-01T12:33:00;3.15;;;1.40;;
50205;SDS011;36098;48.390;10.856;2022-08-01T12:35:28;3.63;;;1.70;;
50205;SDS011;36098;48.390;10.856;2022-08-01T12:37:55;2.65;;;1.63;;
50205;SDS011;36098;48.390;10.856;2022-08-01T12:40:24;2.83;;;1.58;;
50205;SDS011;36098;48.390;10.856;2022-08-01T12:42:55;1.95;;;1.58;;
50205;SDS011;36098;48.390;10.856;2022-08-01T12:45:26;2.33;;;1.60;;
50205;SDS011;36098;48.390;10.856;2022-08-01T12:47:53;2.10;;;1.33;;
50205;SDS011;36098;48.390;10.856;2022-08-01T12:50:20;3.15;;;1.50;;
50205;SDS011;36098;48.390;10.856;2022-08-01T12:52:48;2.40;;;1.70;;
50205;SDS011;36098;48.390;10.856;2022-08-01T12:55:15;3.20;;;1.60;;
50205;SDS011;36098;48.390;10.856;2022-08-01T12:57:46;3.13;;;1.60;;
50205;SDS011;36098;48.390;10.856;2022-08-01T13:00:17;2.00;;;1.60;;
50205;SDS011;36098;48.390;10.856;2022-08-01T13:02:45;1.75;;;1.40;;
50205;SDS011;36098;48.390;10.856;2022-08-01T13:05:12;2.30;;;1.80;;
50205;SDS011;36098;48.390;10.856;2022-08-01T13:07:39;2.50;;;1.80;;
50205;SDS011;36098;48.390;10.856;2022-08-01T13:10:10;2.85;;;1.50;;
50205;SDS011;36098;48.390;10.856;2022-08-01T13:12:36;6.03;;;1.70;;
50205;SDS011;36098;48.390;10.856;2022-08-01T13:15:16;1.85;;;1.27;;
50205;SDS011;36098;48.390;10.856;2022-08-01T13:17:52;1.95;;;1.65;;
50205;SDS011;36098;48.390;10.856;2022-08-01T13:20:25;3.08;;;1.60;;
50205;SDS011;36098;48.390;10.856;2022-08-01T13:22:54;3.50;;;1.80;;
50205;SDS011;36098;48.390;10.856;2022-08-01T13:25:20;1.92;;;1.63;;
50205;SDS011;36098;48.390;10.856;2022-08-01T13:27:46;3.28;;;1.60;;
50205;SDS011;36098;48.390;10.856;2022-08-01T13:30:13;2.30;;;1.50;;
50205;SDS011;36098;48.390;10.856;2022-08-01T13:32:39;3.88;;;1.55;;
50205;SDS011;36098;48.390;10.856;2022-08-01T13:35:06;2.55;;;1.42;;
50205;SDS011;36098;48.390;10.856;2022-08-01T13:37:33;2.80;;;1.70;;
50205;SDS011;36098;48.390;10.856;2022-08-01T13:39:58;3.67;;;1.70;;
50205;SDS011;36098;48.390;10.856;2022-08-01T13:42:23;2.92;;;1.70;;
50205;SDS011;36098;48.390;10.856;2022-08-01T13:44:49;4.65;;;2.35;;
50205;SDS011;36098;48.390;10.856;2022-08-01T13:47:14;9.60;;;2.75;;
50205;SDS011;36098;48.390;10.856;2022-08-01T13:49:39;14.25;;;3.08;;
50205;SDS011;36098;48.390;10.856;2022-08-01T13:52:05;7.90;;;2.55;;
50205;SDS011;36098;48.390;10.856;2022-08-01T13:54:34;9.30;;;2.60;;
50205;SDS011;36098;48.390;10.856;2022-08-01T13:56:59;5.00;;;2.60;;
50205;SDS011;36098;48.390;10.856;2022-08-01T13:59:24;8.10;;;2.35;;
50205;SDS011;36098;48.390;10.856;2022-08-01T14:01:50;7.47;;;2.42;;
50205;SDS011;36098;48.390;10.856;2022-08-01T14:04:15;6.18;;;2.33;;
50205;SDS011;36098;48.390;10.856;2022-08-01T14:06:40;7.78;;;2.67;;
50205;SDS011;36098;48.390;10.856;2022-08-01T14:09:06;7.50;;;2.45;;
50205;SDS011;36098;48.390;10.856;2022-08-01T14:11:32;8.18;;;1.92;;
50205;SDS011;36098;48.390;10.856;2022-08-01T14:13:59;4.95;;;1.60;;
50205;SDS011;36098;48.390;10.856;2022-08-01T14:16:25;5.45;;;1.55;;
50205;SDS011;36098;48.390;10.856;2022-08-01T14:18:50;5.45;;;1.27;;
50205;SDS011;36098;48.390;10.856;2022-08-01T14:21:15;5.70;;;1.55;;
50205;SDS011;36098;48.390;10.856;2022-08-01T14:23:41;4.55;;;1.42;;
50205;SDS011;36098;48.390;10.856;2022-08-01T14:26:09;4.30;;;1.35;;
50205;SDS011;36098;48.390;10.856;2022-08-01T14:28:38;5.95;;;1.30;;
50205;SDS011;36098;48.390;10.856;2022-08-01T14:31:03;4.45;;;1.08;;
50205;SDS011;36098;48.390;10.856;2022-08-01T14:33:31;2.83;;;1.13;;
50205;SDS011;36098;48.390;10.856;2022-08-01T14:35:57;3.03;;;1.30;;
50205;SDS011;36098;48.390;10.856;2022-08-01T14:38:22;2.42;;;1.13;;
50205;SDS011;36098;48.390;10.856;2022-08-01T14:40:47;5.28;;;1.48;;
50205;SDS011;36098;48.390;10.856;2022-08-01T14:43:16;8.38;;;1.50;;
50205;SDS011;36098;48.390;10.856;2022-08-01T14:45:44;6.93;;;1.95;;
50205;SDS011;36098;48.390;10.856;2022-08-01T14:48:10;6.65;;;1.70;;
50205;SDS011;36098;48.390;10.856;2022-08-01T14:50:35;5.65;;;1.48;;
50205;SDS011;36098;48.390;10.856;2022-08-01T14:53:01;6.50;;;1.58;;
50205;SDS011;36098;48.390;10.856;2022-08-01T14:55:27;6.32;;;1.67;;
50205;SDS011;36098;48.390;10.856;2022-08-01T14:57:53;4.22;;;1.50;;
50205;SDS011;36098;48.390;10.856;2022-08-01T15:00:18;6.88;;;1.58;;
50205;SDS011;36098;48.390;10.856;2022-08-01T15:02:44;5.22;;;1.50;;
50205;SDS011;36098;48.390;10.856;2022-08-01T15:05:10;4.63;;;1.50;;
50205;SDS011;36098;48.390;10.856;2022-08-01T15:07:36;3.53;;;1.50;;
50205;SDS011;36098;48.390;10.856;2022-08-01T15:10:02;5.22;;;1.42;;
50205;SDS011;36098;48.390;10.856;2022-08-01T15:12:31;6.07;;;1.58;;
50205;SDS011;36098;48.390;10.856;2022-08-01T15:14:57;2.70;;;1.45;;
50205;SDS011;36098;48.390;10.856;2022-08-01T15:17:26;2.72;;;1.27;;